createdAt,value
2023-03-31T00:03:21.908Z,100273.69
2023-03-31T00:08:30.505Z,100274.31
2023-03-31T00:13:34.967Z,100243.25
2023-03-31T00:18:47.789Z,100237.00
2023-03-31T00:23:51.691Z,100208.53
2023-03-31T00:28:55.422Z,100198.94
2023-03-31T00:34:00.510Z,100187.47
2023-03-31T00:39:07.037Z,100177.97
2023-03-31T00:44:14.951Z,100178.81
2023-03-31T00:49:26.495Z,100169.09
2023-03-31T00:54:33.462Z,100166.47
2023-03-31T00:59:40.598Z,100148.50
2023-03-31T01:04:54.733Z,100142.47
2023-03-31T01:10:01.150Z,100137.91
2023-03-31T01:15:06.072Z,100140.72
2023-03-31T01:20:22.066Z,100124.28
2023-03-31T01:25:50.358Z,100107.09
2023-03-31T01:31:27.255Z,100103.53
2023-03-31T01:36:59.983Z,100088.84
2023-03-31T01:42:13.195Z,100076.72
2023-03-31T01:47:22.933Z,100064.34
2023-03-31T01:52:32.703Z,100054.88
2023-03-31T01:57:41.614Z,100037.69
2023-03-31T02:02:50.206Z,100026.38
2023-03-31T02:07:57.530Z,100006.41
2023-03-31T02:13:04.775Z,99991.94
2023-03-31T02:18:12.216Z,99975.53
2023-03-31T02:23:20.696Z,99961.00
2023-03-31T02:28:28.416Z,99938.44
2023-03-31T02:33:32.277Z,99918.34
2023-03-31T02:38:40.661Z,99909.03
2023-03-31T02:43:45.606Z,99887.34
2023-03-31T02:48:52.487Z,99854.34
2023-03-31T02:54:21.510Z,99854.66
2023-03-31T02:59:40.661Z,99852.94
2023-03-31T03:05:04.759Z,99832.13
2023-03-31T03:10:12.970Z,99814.78
2023-03-31T03:15:25.766Z,99799.41
2023-03-31T03:20:29.579Z,99796.13
2023-03-31T03:25:34.154Z,99782.88
2023-03-31T03:30:39.594Z,99774.31
2023-03-31T03:35:43.467Z,99769.78
2023-03-31T03:40:49.627Z,99745.75
2023-03-31T03:45:55.485Z,99740.38
2023-03-31T03:51:00.891Z,99723.81
2023-03-31T03:56:04.830Z,99713.41
2023-03-31T04:01:10.060Z,99695.25
2023-03-31T04:06:13.852Z,99665.97
2023-03-31T04:11:19.370Z,99653.84
2023-03-31T04:16:25.568Z,99639.81
2023-03-31T04:21:30.667Z,99635.53
2023-03-31T04:26:43.152Z,99618.94
2023-03-31T04:31:50.694Z,99607.72
2023-03-31T04:36:56.171Z,99589.69
2023-03-31T04:42:00.849Z,99580.16
2023-03-31T04:47:06.976Z,99572.44
2023-03-31T04:52:10.695Z,99563.75
2023-03-31T04:57:14.425Z,99542.25
2023-03-31T05:02:25.087Z,99526.63
2023-03-31T05:07:29.351Z,99518.81
2023-03-31T05:12:35.381Z,99512.78
2023-03-31T05:17:40.450Z,99513.75
2023-03-31T05:22:44.252Z,99513.63
2023-03-31T05:27:48.733Z,99504.28
2023-03-31T05:32:54.276Z,99503.50
2023-03-31T05:37:58.154Z,99500.91
2023-03-31T05:43:01.880Z,99500.88
2023-03-31T05:48:07.423Z,99502.56
2023-03-31T05:53:11.945Z,99494.84
2023-03-31T05:58:15.647Z,99489.59
2023-03-31T06:03:20.742Z,99481.63
2023-03-31T06:08:24.941Z,99476.72
2023-03-31T06:13:28.656Z,99472.28
2023-03-31T06:18:35.257Z,99460.00
2023-03-31T06:23:38.994Z,99448.84
2023-03-31T06:28:42.997Z,99443.75
2023-03-31T06:33:48.614Z,99435.94
2023-03-31T06:38:52.744Z,99425.75
2023-03-31T06:43:56.493Z,99425.62
2023-03-31T06:49:01.590Z,99406.00
2023-03-31T06:54:05.363Z,99402.59
2023-03-31T06:59:09.049Z,99396.72
2023-03-31T07:04:14.081Z,99400.16
2023-03-31T07:09:18.639Z,99400.16
2023-03-31T07:14:22.710Z,99395.00
2023-03-31T07:19:27.892Z,99389.28
2023-03-31T07:24:31.597Z,99377.44
2023-03-31T07:29:35.435Z,99380.38
2023-03-31T07:34:41.606Z,99380.53
2023-03-31T07:39:45.423Z,99378.81
2023-03-31T07:44:49.344Z,99383.16
2023-03-31T07:49:54.899Z,99374.59
2023-03-31T07:54:58.693Z,99367.66
2023-03-31T08:00:06.514Z,99367.81
2023-03-31T08:05:18.514Z,99366.22
2023-03-31T08:10:25.932Z,99361.31
2023-03-31T08:15:30.115Z,99353.72
2023-03-31T08:20:35.237Z,99359.00
2023-03-31T08:25:39.529Z,99347.19
2023-03-31T08:30:44.034Z,99349.97
2023-03-31T08:35:49.174Z,99335.31
2023-03-31T08:40:52.890Z,99332.13
2023-03-31T08:45:57.177Z,99318.66
2023-03-31T08:51:07.003Z,99312.00
2023-03-31T08:56:17.778Z,99308.72
2023-03-31T09:01:38.112Z,99302.75
2023-03-31T09:06:58.812Z,99306.22
2023-03-31T09:12:09.904Z,99298.41
2023-03-31T09:17:24.216Z,99290.78
2023-03-31T09:22:35.854Z,99291.84
2023-03-31T09:27:42.637Z,99279.13
2023-03-31T09:32:48.606Z,99266.22
2023-03-31T09:37:54.825Z,99276.53
2023-03-31T09:43:01.812Z,99259.50
2023-03-31T09:48:12.405Z,99257.16
2023-03-31T09:53:23.144Z,99252.75
2023-03-31T09:58:27.142Z,99256.06
2023-03-31T10:03:36.758Z,99248.56
2023-03-31T10:08:44.197Z,99239.84
2023-03-31T10:13:50.382Z,99227.72
2023-03-31T10:18:54.115Z,99235.47
2023-03-31T10:24:02.653Z,99230.28
2023-03-31T10:29:12.678Z,99219.03
2023-03-31T10:34:17.700Z,99219.12
2023-03-31T10:39:29.537Z,99208.66
2023-03-31T10:44:36.909Z,99219.06
2023-03-31T10:49:42.572Z,99206.16
2023-03-31T10:54:54.095Z,99194.19
2023-03-31T11:00:13.208Z,99201.97
2023-03-31T11:05:23.301Z,99179.44
2023-03-31T11:10:54.856Z,99173.44
2023-03-31T11:16:08.064Z,99199.28
2023-03-31T11:21:22.021Z,99181.16
2023-03-31T11:26:36.309Z,99166.59
2023-03-31T11:31:50.808Z,99158.03
2023-03-31T11:37:18.337Z,99140.84
2023-03-31T11:42:28.666Z,99151.91
2023-03-31T11:47:38.671Z,99161.31
2023-03-31T11:52:48.345Z,99137.88
2023-03-31T11:58:02.248Z,99136.09
2023-03-31T12:03:12.395Z,99138.72
2023-03-31T12:08:19.809Z,99142.94
2023-03-31T12:13:42.064Z,99145.63
2023-03-31T12:18:58.313Z,99138.59
2023-03-31T12:24:02.105Z,99147.31
2023-03-31T12:29:16.815Z,99116.28
2023-03-31T12:34:23.298Z,99105.19
2023-03-31T12:39:39.742Z,99102.56
2023-03-31T12:44:57.721Z,99104.22
2023-03-31T12:50:16.793Z,99095.59
2023-03-31T12:55:39.033Z,99103.25
2023-03-31T13:01:06.781Z,99092.88
2023-03-31T13:06:12.198Z,99094.34
2023-03-31T13:11:16.386Z,99090.69
2023-03-31T13:16:22.098Z,99078.50
2023-03-31T13:21:26.476Z,99059.22
2023-03-31T13:26:48.065Z,99080.81
2023-03-31T13:32:19.184Z,99072.09
2023-03-31T13:37:38.590Z,99081.72
2023-03-31T13:43:06.232Z,99068.84
2023-03-31T13:48:37.620Z,99063.81
2023-03-31T13:54:06.442Z,99069.25
2023-03-31T13:59:21.953Z,99059.78
2023-03-31T14:04:52.248Z,99052.88
2023-03-31T14:09:58.310Z,99059.69
2023-03-31T14:15:02.114Z,99060.72
2023-03-31T14:20:27.508Z,99049.38
2023-03-31T14:25:42.828Z,99046.63
2023-03-31T14:30:58.769Z,99038.81
2023-03-31T14:36:15.970Z,99055.66
2023-03-31T14:41:29.416Z,99039.28
2023-03-31T14:46:38.010Z,99043.47
2023-03-31T14:51:45.154Z,99024.28
2023-03-31T14:56:52.756Z,99029.47
2023-03-31T15:01:59.408Z,99025.19
2023-03-31T15:07:06.169Z,99029.66
2023-03-31T15:12:16.155Z,99023.38
2023-03-31T15:17:22.490Z,99037.94
2023-03-31T15:22:29.824Z,99023.16
2023-03-31T15:27:38.120Z,99024.81
2023-03-31T15:32:42.274Z,99023.91
2023-03-31T15:37:47.743Z,99023.81
2023-03-31T15:43:06.071Z,99018.63
2023-03-31T15:48:21.702Z,99019.47
2023-03-31T15:53:31.184Z,99009.09
2023-03-31T15:58:54.069Z,99008.28
2023-03-31T16:03:58.256Z,98991.84
2023-03-31T16:09:08.334Z,99003.09
2023-03-31T16:14:20.060Z,99009.03
2023-03-31T16:19:27.457Z,98998.50
2023-03-31T16:24:35.999Z,99004.47
2023-03-31T16:29:41.043Z,98994.09
2023-03-31T16:34:56.899Z,99000.28
2023-03-31T16:40:02.088Z,98992.44
2023-03-31T16:50:15.305Z,98977.69
2023-03-31T16:55:20.623Z,98980.88
2023-03-31T17:00:24.579Z,98998.75
2023-03-31T17:10:34.460Z,98985.00
2023-03-31T17:15:38.868Z,98988.44
2023-03-31T17:20:42.703Z,98994.44
2023-03-31T17:25:49.722Z,98988.37
2023-03-31T17:30:53.545Z,98995.97
2023-03-31T17:35:58.799Z,98989.09
2023-03-31T17:41:05.837Z,99001.09
2023-03-31T17:46:12.716Z,98988.13
2023-03-31T17:51:18.508Z,98995.81
2023-03-31T17:56:23.829Z,98988.03
2023-03-31T18:01:27.688Z,98997.38
2023-03-31T18:06:31.795Z,98996.56
2023-03-31T18:11:37.339Z,99002.63
2023-03-31T18:16:41.662Z,99007.78
2023-03-31T18:21:45.398Z,99006.00
2023-03-31T18:26:50.430Z,99000.81
2023-03-31T18:31:54.351Z,99010.37
2023-03-31T18:36:58.176Z,99015.63
2023-03-31T18:42:04.133Z,99011.00
2023-03-31T18:47:08.054Z,99004.09
2023-03-31T18:52:11.889Z,99011.03
2023-03-31T18:57:17.652Z,99018.66
2023-03-31T19:02:21.960Z,99007.41
2023-03-31T19:07:25.681Z,99018.69
2023-03-31T19:12:30.807Z,99021.31
2023-03-31T19:17:34.540Z,99010.03
2023-03-31T19:22:38.369Z,99009.97
2023-03-31T19:27:44.480Z,99014.31
2023-03-31T19:32:49.832Z,98998.81
2023-03-31T19:37:53.554Z,99009.97
2023-03-31T19:42:58.752Z,99007.44
2023-03-31T19:48:02.627Z,98996.97
2023-03-31T19:53:07.071Z,99008.91
2023-03-31T19:58:12.653Z,99010.69
2023-03-31T20:03:16.516Z,99014.94
2023-03-31T20:08:20.468Z,99017.63
2023-03-31T20:13:25.611Z,99014.12
2023-03-31T20:18:29.668Z,99004.53
2023-03-31T20:23:34.148Z,99005.31
2023-03-31T20:28:40.179Z,99012.16
2023-03-31T20:33:44.617Z,99019.94
2023-03-31T20:38:51.307Z,99016.41
2023-03-31T20:43:56.974Z,99009.66
2023-03-31T20:49:00.947Z,99009.44
2023-03-31T20:54:05.637Z,99000.91
2023-03-31T20:59:12.609Z,99021.56
2023-03-31T21:04:16.961Z,99011.03
2023-03-31T21:09:20.938Z,99027.31
2023-03-31T21:14:26.032Z,99018.75
2023-03-31T21:19:29.791Z,99018.75
2023-03-31T21:24:33.999Z,99025.56
2023-03-31T21:29:39.498Z,99022.19
2023-03-31T21:34:43.457Z,99027.50
2023-03-31T21:39:47.430Z,99028.06
2023-03-31T21:44:58.809Z,99031.66
2023-03-31T21:50:02.647Z,99019.66
2023-03-31T21:55:06.938Z,99020.28
2023-03-31T22:00:15.742Z,99021.25
2023-03-31T22:05:19.792Z,99020.34
2023-03-31T22:10:23.595Z,99022.16
2023-03-31T22:15:28.764Z,99016.19
2023-03-31T22:20:32.793Z,99018.69
2023-03-31T22:25:36.813Z,99019.56
2023-03-31T22:30:41.984Z,99030.59
2023-03-31T22:35:45.805Z,99027.16
2023-03-31T22:40:49.618Z,99033.13
2023-03-31T22:45:54.706Z,99034.09
2023-03-31T22:50:58.579Z,99034.09
2023-03-31T22:56:07.400Z,99039.81
2023-03-31T23:01:15.704Z,99039.00
2023-03-31T23:06:19.410Z,99043.38
2023-03-31T23:11:23.049Z,99059.78
2023-03-31T23:16:28.102Z,99058.81
2023-03-31T23:21:32.492Z,99063.91
2023-03-31T23:26:36.203Z,99064.03
2023-03-31T23:31:41.478Z,99067.44
2023-03-31T23:36:45.412Z,99074.41
2023-03-31T23:41:49.106Z,99075.12
2023-03-31T23:46:54.226Z,99090.69
2023-03-31T23:51:58.127Z,99082.84
2023-03-31T23:57:01.897Z,99080.34
